TCA7965 SVPR-SVBC
Flight info
| Callsign | TCA7965 |
|---|---|
| Flight time | 0h 39m |
| Altitude | 24000 |
| Route | GNA1 ITAMA W4 PEDRI G443 BNA |
| Aircraft | LJ35/M-SGHRWXY/SB1 |
Departure
| Time | 2026-04-24 23:04 |
|---|---|
| Airport | General Manuel Carlos Piar International Airport (SVPR) |
Arrival
| Time | 2026-04-24 23:43 |
|---|---|
| Airport | General José Antonio Anzoategui International Airport (SVBC) |
| Time | Latitude | Longitude | Altitude | Speed | Heading |
|---|---|---|---|---|---|
| 2026-04-24 22:17 | 8.28700 | -62.76038 | 460 ft | 0 kts | 52° |
| 2026-04-24 23:01 | 8.28760 | -62.76092 | 460 ft | 18 kts | 289° |
| 2026-04-24 23:01 | 8.28766 | -62.76109 | 460 ft | 1 kts | 289° |
| 2026-04-24 23:01 | 8.28770 | -62.76183 | 459 ft | 21 kts | 261° |
| 2026-04-24 23:02 | 8.28693 | -62.76382 | 456 ft | 35 kts | 242° |
| 2026-04-24 23:02 | 8.28581 | -62.76600 | 457 ft | 34 kts | 244° |
| 2026-04-24 23:02 | 8.28500 | -62.76807 | 456 ft | 24 kts | 258° |
| 2026-04-24 23:02 | 8.28451 | -62.76853 | 457 ft | 10 kts | 54° |
| 2026-04-24 23:03 | 8.28492 | -62.76793 | 456 ft | 2 kts | 62° |
| 2026-04-24 23:03 | 8.28613 | -62.76542 | 457 ft | 78 kts | 64° |
| 2026-04-24 23:03 | 8.28991 | -62.75768 | 473 ft | 167 kts | 64° |
| 2026-04-24 23:04 | 8.29650 | -62.74592 | 1151 ft | 215 kts | 56° |
| 2026-04-24 23:04 | 8.30727 | -62.73395 | 2062 ft | 261 kts | 41° |
| 2026-04-24 23:04 | 8.32502 | -62.72410 | 2576 ft | 316 kts | 21° |
| 2026-04-24 23:04 | 8.34580 | -62.71344 | 3151 ft | 355 kts | 37° |
| 2026-04-24 23:05 | 8.36371 | -62.69481 | 3681 ft | 385 kts | 54° |
| 2026-04-24 23:05 | 8.37667 | -62.67031 | 4196 ft | 407 kts | 69° |
| 2026-04-24 23:05 | 8.38331 | -62.64189 | 4693 ft | 425 kts | 83° |
| 2026-04-24 23:05 | 8.38290 | -62.61209 | 5158 ft | 417 kts | 97° |
| 2026-04-24 23:06 | 8.37520 | -62.58439 | 5604 ft | 404 kts | 112° |
| 2026-04-24 23:06 | 8.36101 | -62.56081 | 6049 ft | 395 kts | 127° |
| 2026-04-24 23:06 | 8.34083 | -62.54218 | 6486 ft | 390 kts | 144° |
| 2026-04-24 23:06 | 8.31648 | -62.53037 | 6895 ft | 388 kts | 161° |
| 2026-04-24 23:07 | 8.28992 | -62.52634 | 7308 ft | 387 kts | 178° |
| 2026-04-24 23:07 | 8.26346 | -62.53046 | 7727 ft | 386 kts | 195° |
| 2026-04-24 23:07 | 8.23938 | -62.54239 | 8150 ft | 387 kts | 213° |
| 2026-04-24 23:07 | 8.21985 | -62.56115 | 8577 ft | 387 kts | 231° |
| 2026-04-24 23:08 | 8.20699 | -62.58462 | 9014 ft | 387 kts | 248° |
| 2026-04-24 23:08 | 8.20151 | -62.61118 | 9448 ft | 388 kts | 265° |
| 2026-04-24 23:08 | 8.20421 | -62.63825 | 9890 ft | 387 kts | 283° |
| 2026-04-24 23:08 | 8.21486 | -62.66309 | 10285 ft | 387 kts | 301° |
| 2026-04-24 23:09 | 8.23197 | -62.68405 | 10717 ft | 385 kts | 314° |
| 2026-04-24 23:09 | 8.25078 | -62.70278 | 11177 ft | 384 kts | 316° |
| 2026-04-24 23:09 | 8.26962 | -62.72204 | 11655 ft | 383 kts | 312° |
| 2026-04-24 23:09 | 8.28649 | -62.74292 | 12139 ft | 382 kts | 307° |
| 2026-04-24 23:10 | 8.30436 | -62.76219 | 12603 ft | 381 kts | 319° |
| 2026-04-24 23:10 | 8.32424 | -62.77981 | 13102 ft | 380 kts | 319° |
| 2026-04-24 23:10 | 8.34401 | -62.79773 | 13607 ft | 380 kts | 319° |
| 2026-04-24 23:10 | 8.36387 | -62.81530 | 14077 ft | 379 kts | 319° |
| 2026-04-24 23:11 | 8.38382 | -62.83263 | 14535 ft | 379 kts | 319° |
| 2026-04-24 23:11 | 8.40370 | -62.85010 | 14990 ft | 378 kts | 319° |
| 2026-04-24 23:11 | 8.42343 | -62.86763 | 15456 ft | 378 kts | 319° |
| 2026-04-24 23:11 | 8.44320 | -62.88510 | 15925 ft | 377 kts | 319° |
| 2026-04-24 23:12 | 8.46278 | -62.90233 | 16398 ft | 376 kts | 319° |
| 2026-04-24 23:12 | 8.48257 | -62.91977 | 16886 ft | 376 kts | 319° |
| 2026-04-24 23:12 | 8.50226 | -62.93715 | 17377 ft | 375 kts | 318° |
| 2026-04-24 23:12 | 8.52193 | -62.95452 | 17882 ft | 375 kts | 318° |
| 2026-04-24 23:13 | 8.54161 | -62.97189 | 18376 ft | 375 kts | 318° |
| 2026-04-24 23:13 | 8.56124 | -62.98919 | 18814 ft | 374 kts | 318° |
| 2026-04-24 23:13 | 8.58058 | -63.00628 | 19249 ft | 374 kts | 318° |
| 2026-04-24 23:13 | 8.60015 | -63.02355 | 19703 ft | 373 kts | 318° |
| 2026-04-24 23:14 | 8.61966 | -63.04082 | 20163 ft | 372 kts | 319° |
| 2026-04-24 23:14 | 8.63919 | -63.05805 | 20629 ft | 372 kts | 318° |
| 2026-04-24 23:14 | 8.65868 | -63.07525 | 21104 ft | 371 kts | 318° |
| 2026-04-24 23:14 | 8.67813 | -63.09245 | 21583 ft | 371 kts | 318° |
| 2026-04-24 23:15 | 8.69756 | -63.10963 | 22073 ft | 370 kts | 318° |
| 2026-04-24 23:15 | 8.71672 | -63.12655 | 22565 ft | 369 kts | 319° |
| 2026-04-24 23:15 | 8.73618 | -63.14374 | 23070 ft | 376 kts | 318° |
| 2026-04-24 23:15 | 8.75638 | -63.16162 | 23584 ft | 392 kts | 318° |
| 2026-04-24 23:16 | 8.77725 | -63.18004 | 24024 ft | 405 kts | 319° |
| 2026-04-24 23:16 | 8.79880 | -63.19904 | 24156 ft | 427 kts | 318° |
| 2026-04-24 23:16 | 8.82187 | -63.21935 | 24170 ft | 448 kts | 319° |
| 2026-04-24 23:16 | 8.84582 | -63.24042 | 24167 ft | 464 kts | 318° |
| 2026-04-24 23:17 | 8.87021 | -63.26220 | 24170 ft | 476 kts | 318° |
| 2026-04-24 23:17 | 8.89540 | -63.28457 | 24171 ft | 483 kts | 319° |
| 2026-04-24 23:17 | 8.92057 | -63.30662 | 24170 ft | 473 kts | 319° |
| 2026-04-24 23:17 | 8.94532 | -63.32827 | 24170 ft | 465 kts | 318° |
| 2026-04-24 23:18 | 8.96906 | -63.35036 | 24161 ft | 459 kts | 315° |
| 2026-04-24 23:18 | 8.99135 | -63.37272 | 24160 ft | 455 kts | 314° |
| 2026-04-24 23:18 | 9.01371 | -63.39553 | 24152 ft | 451 kts | 314° |
| 2026-04-24 23:18 | 9.03589 | -63.41791 | 24152 ft | 448 kts | 315° |
| 2026-04-24 23:19 | 9.05823 | -63.43987 | 24152 ft | 446 kts | 315° |
| 2026-04-24 23:19 | 9.08016 | -63.46149 | 24153 ft | 444 kts | 315° |
| 2026-04-24 23:19 | 9.10238 | -63.48369 | 24160 ft | 443 kts | 314° |
| 2026-04-24 23:19 | 9.12407 | -63.50533 | 24155 ft | 442 kts | 314° |
| 2026-04-24 23:20 | 9.14601 | -63.52731 | 24153 ft | 441 kts | 315° |
| 2026-04-24 23:20 | 9.16801 | -63.54901 | 24154 ft | 441 kts | 315° |
| 2026-04-24 23:20 | 9.18985 | -63.57079 | 24154 ft | 441 kts | 315° |
| 2026-04-24 23:20 | 9.21132 | -63.59241 | 24153 ft | 440 kts | 315° |
| 2026-04-24 23:21 | 9.23312 | -63.61417 | 24159 ft | 440 kts | 315° |
| 2026-04-24 23:21 | 9.25497 | -63.63594 | 24162 ft | 440 kts | 315° |
| 2026-04-24 23:21 | 9.27693 | -63.65747 | 24162 ft | 439 kts | 316° |
| 2026-04-24 23:21 | 9.30071 | -63.67701 | 24163 ft | 439 kts | 321° |
| 2026-04-24 23:22 | 9.32490 | -63.69599 | 24164 ft | 438 kts | 321° |
| 2026-04-24 23:22 | 9.34846 | -63.71477 | 24161 ft | 424 kts | 321° |
| 2026-04-24 23:22 | 9.37120 | -63.73320 | 24158 ft | 413 kts | 321° |
| 2026-04-24 23:22 | 9.39316 | -63.75086 | 24174 ft | 402 kts | 321° |
| 2026-04-24 23:23 | 9.41491 | -63.76827 | 24171 ft | 393 kts | 321° |
| 2026-04-24 23:23 | 9.43624 | -63.78529 | 24155 ft | 385 kts | 321° |
| 2026-04-24 23:23 | 9.45700 | -63.80195 | 24064 ft | 377 kts | 320° |
| 2026-04-24 23:23 | 9.47748 | -63.81845 | 23746 ft | 376 kts | 321° |
| 2026-04-24 23:24 | 9.49806 | -63.83485 | 23373 ft | 377 kts | 322° |
| 2026-04-24 23:24 | 9.51857 | -63.85090 | 22960 ft | 376 kts | 322° |
| 2026-04-24 23:24 | 9.53919 | -63.86722 | 22541 ft | 377 kts | 321° |
| 2026-04-24 23:24 | 9.55969 | -63.88386 | 22129 ft | 376 kts | 321° |
| 2026-04-24 23:25 | 9.58017 | -63.90041 | 21730 ft | 376 kts | 321° |
| 2026-04-24 23:25 | 9.60067 | -63.91690 | 21318 ft | 376 kts | 321° |
| 2026-04-24 23:25 | 9.62121 | -63.93326 | 20916 ft | 376 kts | 322° |
| 2026-04-24 23:25 | 9.64173 | -63.94968 | 20503 ft | 375 kts | 321° |
| 2026-04-24 23:26 | 9.66225 | -63.96614 | 20096 ft | 375 kts | 321° |
| 2026-04-24 23:26 | 9.68270 | -63.98258 | 19691 ft | 375 kts | 321° |
| 2026-04-24 23:26 | 9.70313 | -63.99903 | 19284 ft | 375 kts | 320° |
| 2026-04-24 23:26 | 9.72269 | -64.01657 | 18871 ft | 374 kts | 317° |
| 2026-04-24 23:27 | 9.74183 | -64.03436 | 18458 ft | 374 kts | 317° |
| 2026-04-24 23:27 | 9.76110 | -64.05209 | 18009 ft | 373 kts | 317° |
| 2026-04-24 23:27 | 9.78020 | -64.06947 | 17535 ft | 373 kts | 318° |
| 2026-04-24 23:27 | 9.79950 | -64.08709 | 17063 ft | 373 kts | 317° |
| 2026-04-24 23:28 | 9.81872 | -64.10477 | 16591 ft | 373 kts | 317° |
| 2026-04-24 23:28 | 9.83799 | -64.12242 | 16146 ft | 373 kts | 317° |
| 2026-04-24 23:28 | 9.85098 | -64.13431 | 15834 ft | 373 kts | 317° |
| 2026-04-24 23:28 | 9.87640 | -64.15773 | 15214 ft | 372 kts | 317° |
| 2026-04-24 23:29 | 9.88908 | -64.16941 | 14906 ft | 372 kts | 317° |
| 2026-04-24 23:29 | 9.90834 | -64.18698 | 14438 ft | 372 kts | 318° |
| 2026-04-24 23:29 | 9.92756 | -64.20443 | 13992 ft | 371 kts | 318° |
| 2026-04-24 23:29 | 9.94603 | -64.22273 | 13455 ft | 371 kts | 310° |
| 2026-04-24 23:30 | 9.95919 | -64.24514 | 12829 ft | 371 kts | 292° |
| 2026-04-24 23:30 | 9.96682 | -64.27025 | 12221 ft | 371 kts | 283° |
| 2026-04-24 23:30 | 9.97219 | -64.29582 | 11647 ft | 371 kts | 281° |
| 2026-04-24 23:30 | 9.97688 | -64.32153 | 11104 ft | 370 kts | 280° |
| 2026-04-24 23:31 | 9.98131 | -64.34723 | 10564 ft | 370 kts | 280° |
| 2026-04-24 23:31 | 9.98566 | -64.37303 | 10012 ft | 370 kts | 280° |
| 2026-04-24 23:31 | 9.98998 | -64.39846 | 9870 ft | 358 kts | 280° |
| 2026-04-24 23:31 | 9.99408 | -64.42297 | 9862 ft | 346 kts | 279° |
| 2026-04-24 23:32 | 9.99796 | -64.44664 | 9586 ft | 344 kts | 279° |
| 2026-04-24 23:32 | 10.00189 | -64.47055 | 9230 ft | 344 kts | 280° |
| 2026-04-24 23:32 | 10.00578 | -64.49450 | 8875 ft | 344 kts | 279° |
| 2026-04-24 23:32 | 10.00965 | -64.51847 | 8540 ft | 344 kts | 279° |
| 2026-04-24 23:33 | 10.01357 | -64.54245 | 8193 ft | 344 kts | 280° |
| 2026-04-24 23:33 | 10.01848 | -64.56618 | 7853 ft | 344 kts | 284° |
| 2026-04-24 23:33 | 10.02561 | -64.58931 | 7521 ft | 343 kts | 290° |
| 2026-04-24 23:33 | 10.03517 | -64.61155 | 7198 ft | 343 kts | 297° |
| 2026-04-24 23:34 | 10.04713 | -64.63253 | 6872 ft | 343 kts | 304° |
| 2026-04-24 23:34 | 10.06141 | -64.65189 | 6538 ft | 342 kts | 311° |
| 2026-04-24 23:34 | 10.07828 | -64.66879 | 6203 ft | 341 kts | 321° |
| 2026-04-24 23:34 | 10.09759 | -64.68275 | 5869 ft | 341 kts | 328° |
| 2026-04-24 23:35 | 10.11751 | -64.69582 | 5527 ft | 341 kts | 327° |
| 2026-04-24 23:35 | 10.13701 | -64.70926 | 5007 ft | 345 kts | 330° |
| 2026-04-24 23:35 | 10.15905 | -64.72011 | 3952 ft | 360 kts | 339° |
| 2026-04-24 23:35 | 10.18294 | -64.72998 | 2702 ft | 378 kts | 340° |
| 2026-04-24 23:36 | 10.20803 | -64.73818 | 1916 ft | 385 kts | 347° |
| 2026-04-24 23:36 | 10.23517 | -64.74243 | 1142 ft | 398 kts | 357° |
| 2026-04-24 23:36 | 10.26188 | -64.74410 | 2298 ft | 366 kts | 353° |
| 2026-04-24 23:36 | 10.28489 | -64.75186 | 3477 ft | 333 kts | 332° |
| 2026-04-24 23:37 | 10.30153 | -64.76697 | 3275 ft | 328 kts | 306° |
| 2026-04-24 23:37 | 10.31107 | -64.78823 | 3114 ft | 334 kts | 285° |
| 2026-04-24 23:37 | 10.30780 | -64.83636 | 1268 ft | 371 kts | 243° |
| 2026-04-24 23:38 | 10.29196 | -64.85472 | 1252 ft | 333 kts | 220° |
| 2026-04-24 23:38 | 10.27461 | -64.86791 | 1748 ft | 288 kts | 210° |
| 2026-04-24 23:38 | 10.25639 | -64.87235 | 2190 ft | 263 kts | 172° |
| 2026-04-24 23:38 | 10.24159 | -64.86366 | 2380 ft | 252 kts | 126° |
| 2026-04-24 23:39 | 10.23944 | -64.84835 | 3407 ft | 200 kts | 72° |
| 2026-04-24 23:39 | 10.24600 | -64.83499 | 3106 ft | 234 kts | 59° |
| 2026-04-24 23:39 | 10.24917 | -64.81968 | 3456 ft | 205 kts | 97° |
| 2026-04-24 23:39 | 10.24363 | -64.80696 | 3297 ft | 193 kts | 123° |
| 2026-04-24 23:40 | 10.23542 | -64.79662 | 2978 ft | 186 kts | 129° |
| 2026-04-24 23:40 | 10.22736 | -64.78631 | 2542 ft | 187 kts | 129° |
| 2026-04-24 23:40 | 10.21833 | -64.77709 | 2260 ft | 185 kts | 136° |
| 2026-04-24 23:40 | 10.20932 | -64.76798 | 1785 ft | 173 kts | 134° |
| 2026-04-24 23:41 | 10.20094 | -64.76039 | 1540 ft | 151 kts | 140° |
| 2026-04-24 23:41 | 10.19301 | -64.75405 | 1280 ft | 143 kts | 140° |
| 2026-04-24 23:41 | 10.18522 | -64.74803 | 1008 ft | 141 kts | 141° |
| 2026-04-24 23:41 | 10.17724 | -64.74196 | 732 ft | 144 kts | 142° |
| 2026-04-24 23:42 | 10.16912 | -64.73568 | 509 ft | 153 kts | 144° |
| 2026-04-24 23:42 | 10.16005 | -64.72941 | 524 ft | 161 kts | 143° |
| 2026-04-24 23:42 | 10.15044 | -64.72265 | 518 ft | 177 kts | 142° |
| 2026-04-24 23:42 | 10.14093 | -64.71465 | 396 ft | 181 kts | 140° |
| 2026-04-24 23:43 | 10.13038 | -64.70689 | 234 ft | 194 kts | 143° |
| 2026-04-24 23:43 | 10.11949 | -64.69863 | 48 ft | 196 kts | 143° |
| 2026-04-24 23:43 | 10.10967 | -64.69091 | 28 ft | 138 kts | 143° |
| 2026-04-24 23:43 | 10.10452 | -64.68705 | 20 ft | 49 kts | 141° |
| 2026-04-24 23:44 | 10.10349 | -64.68616 | 21 ft | 0 kts | 140° |
| 2026-04-24 23:44 | 10.10299 | -64.68574 | 22 ft | 13 kts | 135° |
| 2026-04-24 23:44 | 10.10285 | -64.68519 | 22 ft | 0 kts | 62° |
| 2026-04-24 23:45 | 10.10341 | -64.68440 | 20 ft | 26 kts | 53° |
| 2026-04-24 23:45 | 10.10399 | -64.68366 | 20 ft | 0 kts | 53° |
| 2026-04-24 23:45 | 10.10416 | -64.68361 | 20 ft | 2 kts | 342° |
| 2026-04-24 23:45 | 10.10425 | -64.68367 | 20 ft | 0 kts | 319° |